sensor_id;sensor_type;location;lat;lon;timestamp;pressure;altitude;pressure_sealevel;temperature;humidity
65800;BME280;52544;48.116;11.660;2023-07-29T00:01:48;95356.34;;;17.27;100.00
65800;BME280;52544;48.116;11.660;2023-07-29T00:04:14;95358.00;;;17.28;100.00
65800;BME280;52544;48.116;11.660;2023-07-29T00:06:40;95358.00;;;17.28;100.00
65800;BME280;52544;48.116;11.660;2023-07-29T00:09:05;95347.31;;;17.28;100.00
65800;BME280;52544;48.116;11.660;2023-07-29T00:11:31;95347.31;;;17.28;100.00
65800;BME280;52544;48.116;11.660;2023-07-29T00:14:01;95345.66;;;17.27;100.00
65800;BME280;52544;48.116;11.660;2023-07-29T00:16:27;95347.50;;;17.26;100.00
65800;BME280;52544;48.116;11.660;2023-07-29T00:18:52;95344.97;;;17.24;100.00
65800;BME280;52544;48.116;11.660;2023-07-29T00:21:18;95350.50;;;17.23;100.00
65800;BME280;52544;48.116;11.660;2023-07-29T00:23:43;95343.50;;;17.22;100.00
65800;BME280;52544;48.116;11.660;2023-07-29T00:26:08;95347.19;;;17.21;100.00
65800;BME280;52544;48.116;11.660;2023-07-29T00:28:34;95343.03;;;17.18;100.00
65800;BME280;52544;48.116;11.660;2023-07-29T00:30:59;95336.84;;;17.18;100.00
65800;BME280;52544;48.116;11.660;2023-07-29T00:33:25;95339.72;;;17.16;100.00
65800;BME280;52544;48.116;11.660;2023-07-29T00:35:50;95344.41;;;17.14;100.00
65800;BME280;52544;48.116;11.660;2023-07-29T00:38:16;95345.22;;;17.15;100.00
65800;BME280;52544;48.116;11.660;2023-07-29T00:40:42;95330.19;;;17.14;100.00
65800;BME280;52544;48.116;11.660;2023-07-29T00:43:07;95333.88;;;17.13;100.00
65800;BME280;52544;48.116;11.660;2023-07-29T00:45:33;95331.38;;;17.11;100.00
65800;BME280;52544;48.116;11.660;2023-07-29T00:48:00;95332.19;;;17.12;100.00
65800;BME280;52544;48.116;11.660;2023-07-29T00:50:25;95333.22;;;17.11;100.00
65800;BME280;52544;48.116;11.660;2023-07-29T00:52:54;95337.72;;;17.10;100.00
65800;BME280;52544;48.116;11.660;2023-07-29T00:55:19;95341.22;;;17.11;100.00
65800;BME280;52544;48.116;11.660;2023-07-29T00:57:45;95341.72;;;17.14;100.00
65800;BME280;52544;48.116;11.660;2023-07-29T01:00:14;95331.03;;;17.14;100.00
65800;BME280;52544;48.116;11.660;2023-07-29T01:02:40;95334.03;;;17.11;100.00
65800;BME280;52544;48.116;11.660;2023-07-29T01:05:06;95330.53;;;17.11;100.00
65800;BME280;52544;48.116;11.660;2023-07-29T01:13:16;95330.25;;;17.06;100.00
65800;BME280;52544;48.116;11.660;2023-07-29T01:15:43;95332.91;;;17.06;100.00
65800;BME280;52544;48.116;11.660;2023-07-29T01:18:16;95324.72;;;17.07;100.00
65800;BME280;52544;48.116;11.660;2023-07-29T01:20:43;95329.22;;;17.07;100.00
65800;BME280;52544;48.116;11.660;2023-07-29T01:23:09;95326.41;;;17.08;100.00
65800;BME280;52544;48.116;11.660;2023-07-29T01:25:34;95317.38;;;17.09;100.00
65800;BME280;52544;48.116;11.660;2023-07-29T01:28:00;95321.88;;;17.09;100.00
65800;BME280;52544;48.116;11.660;2023-07-29T01:30:30;95309.06;;;17.04;100.00
65800;BME280;52544;48.116;11.660;2023-07-29T01:36:27;95309.59;;;16.99;100.00
65800;BME280;52544;48.116;11.660;2023-07-29T01:38:53;95313.78;;;16.94;100.00
65800;BME280;52544;48.116;11.660;2023-07-29T01:41:20;95308.81;;;16.91;100.00
65800;BME280;52544;48.116;11.660;2023-07-29T01:43:46;95307.94;;;16.90;100.00
65800;BME280;52544;48.116;11.660;2023-07-29T01:46:15;95308.81;;;16.91;100.00
65800;BME280;52544;48.116;11.660;2023-07-29T01:48:41;95304.63;;;16.88;100.00
65800;BME280;52544;48.116;11.660;2023-07-29T01:51:07;95303.81;;;16.88;100.00
65800;BME280;52544;48.116;11.660;2023-07-29T01:53:33;95300.94;;;16.89;100.00
65800;BME280;52544;48.116;11.660;2023-07-29T01:55:58;95308.31;;;16.87;100.00
65800;BME280;52544;48.116;11.660;2023-07-29T01:58:24;95309.50;;;16.85;100.00
65800;BME280;52544;48.116;11.660;2023-07-29T02:00:50;95308.66;;;16.84;100.00
65800;BME280;52544;48.116;11.660;2023-07-29T02:03:16;95306.81;;;16.85;100.00
65800;BME280;52544;48.116;11.660;2023-07-29T02:05:41;95300.47;;;16.86;100.00
65800;BME280;52544;48.116;11.660;2023-07-29T02:08:09;95303.13;;;16.86;100.00
65800;BME280;52544;48.116;11.660;2023-07-29T02:10:34;95294.13;;;16.87;100.00
65800;BME280;52544;48.116;11.660;2023-07-29T02:12:59;95290.59;;;16.86;100.00
65800;BME280;52544;48.116;11.660;2023-07-29T02:15:25;95295.13;;;16.86;100.00
65800;BME280;52544;48.116;11.660;2023-07-29T02:17:50;95294.97;;;16.87;100.00
65800;BME280;52544;48.116;11.660;2023-07-29T02:20:17;95293.94;;;16.88;100.00
65800;BME280;52544;48.116;11.660;2023-07-29T02:22:42;95294.78;;;16.89;100.00
65800;BME280;52544;48.116;11.660;2023-07-29T02:25:08;95286.28;;;16.85;100.00
65800;BME280;52544;48.116;11.660;2023-07-29T02:27:33;95295.50;;;16.83;100.00
65800;BME280;52544;48.116;11.660;2023-07-29T02:29:59;95292.16;;;16.81;100.00
65800;BME280;52544;48.116;11.660;2023-07-29T02:32:24;95289.66;;;16.79;100.00
65800;BME280;52544;48.116;11.660;2023-07-29T02:34:49;95294.53;;;16.76;100.00
65800;BME280;52544;48.116;11.660;2023-07-29T02:37:15;95297.53;;;16.72;100.00
65800;BME280;52544;48.116;11.660;2023-07-29T02:39:40;95302.22;;;16.70;100.00
65800;BME280;52544;48.116;11.660;2023-07-29T02:42:06;95304.22;;;16.68;100.00
65800;BME280;52544;48.116;11.660;2023-07-29T02:44:31;95301.22;;;16.63;100.00
65800;BME280;52544;48.116;11.660;2023-07-29T02:46:57;95308.59;;;16.61;100.00
65800;BME280;52544;48.116;11.660;2023-07-29T02:49:22;95316.78;;;16.60;100.00
65800;BME280;52544;48.116;11.660;2023-07-29T02:51:48;95314.47;;;16.57;100.00
65800;BME280;52544;48.116;11.660;2023-07-29T02:54:14;95317.47;;;16.54;100.00
65800;BME280;52544;48.116;11.660;2023-07-29T02:56:39;95308.97;;;16.50;100.00
65800;BME280;52544;48.116;11.660;2023-07-29T02:59:05;95304.28;;;16.52;100.00
65800;BME280;52544;48.116;11.660;2023-07-29T03:01:30;95302.63;;;16.51;100.00
65800;BME280;52544;48.116;11.660;2023-07-29T03:03:56;95306.31;;;16.50;100.00
65800;BME280;52544;48.116;11.660;2023-07-29T03:06:21;95305.28;;;16.51;100.00
65800;BME280;52544;48.116;11.660;2023-07-29T03:08:46;95295.63;;;16.50;100.00
65800;BME280;52544;48.116;11.660;2023-07-29T03:11:13;95299.97;;;16.51;100.00
65800;BME280;52544;48.116;11.660;2023-07-29T03:13:39;95293.97;;;16.49;100.00
65800;BME280;52544;48.116;11.660;2023-07-29T03:18:31;95295.31;;;16.45;100.00
65800;BME280;52544;48.116;11.660;2023-07-29T03:20:56;95290.63;;;16.47;100.00
65800;BME280;52544;48.116;11.660;2023-07-29T03:23:21;95297.47;;;16.49;100.00
65800;BME280;52544;48.116;11.660;2023-07-29T03:25:50;95296.34;;;16.44;100.00
65800;BME280;52544;48.116;11.660;2023-07-29T03:28:25;95308.38;;;16.40;100.00
65800;BME280;52544;48.116;11.660;2023-07-29T03:30:53;95309.34;;;16.39;100.00
65800;BME280;52544;48.116;11.660;2023-07-29T03:33:18;95304.38;;;16.36;100.00
65800;BME280;52544;48.116;11.660;2023-07-29T03:35:43;95301.38;;;16.31;100.00
65800;BME280;52544;48.116;11.660;2023-07-29T03:38:10;95292.41;;;16.23;100.00
65800;BME280;52544;48.116;11.660;2023-07-29T03:40:39;95293.41;;;16.22;100.00
65800;BME280;52544;48.116;11.660;2023-07-29T03:43:05;95296.91;;;16.23;100.00
65800;BME280;52544;48.116;11.660;2023-07-29T03:45:31;95292.75;;;16.20;100.00
65800;BME280;52544;48.116;11.660;2023-07-29T03:47:56;95303.72;;;16.25;100.00
65800;BME280;52544;48.116;11.660;2023-07-29T03:50:22;95291.72;;;16.21;100.00
65800;BME280;52544;48.116;11.660;2023-07-29T03:52:47;95299.94;;;16.20;100.00
65800;BME280;52544;48.116;11.660;2023-07-29T03:55:13;95292.41;;;16.23;100.00
65800;BME280;52544;48.116;11.660;2023-07-29T03:57:38;95294.72;;;16.27;100.00
65800;BME280;52544;48.116;11.660;2023-07-29T04:00:04;95300.53;;;16.30;100.00
65800;BME280;52544;48.116;11.660;2023-07-29T04:02:31;95298.19;;;16.35;100.00
65800;BME280;52544;48.116;11.660;2023-07-29T04:04:56;95306.03;;;16.37;100.00
65800;BME280;52544;48.116;11.660;2023-07-29T04:07:21;95309.22;;;16.32;100.00
65800;BME280;52544;48.116;11.660;2023-07-29T04:09:47;95301.72;;;16.36;100.00
65800;BME280;52544;48.116;11.660;2023-07-29T04:12:12;95296.03;;;16.31;100.00
65800;BME280;52544;48.116;11.660;2023-07-29T04:14:37;95285.34;;;16.31;100.00
65800;BME280;52544;48.116;11.660;2023-07-29T04:17:03;95281.50;;;16.33;100.00
65800;BME280;52544;48.116;11.660;2023-07-29T04:19:29;95281.31;;;16.35;100.00
65800;BME280;52544;48.116;11.660;2023-07-29T04:21:54;95272.34;;;16.36;100.00
65800;BME280;52544;48.116;11.660;2023-07-29T04:24:19;95268.66;;;16.37;100.00
65800;BME280;52544;48.116;11.660;2023-07-29T04:26:45;95270.97;;;16.40;100.00
65800;BME280;52544;48.116;11.660;2023-07-29T04:29:11;95256.63;;;16.41;100.00
65800;BME280;52544;48.116;11.660;2023-07-29T04:31:37;95256.63;;;16.41;100.00
65800;BME280;52544;48.116;11.660;2023-07-29T04:34:04;95258.28;;;16.42;100.00
65800;BME280;52544;48.116;11.660;2023-07-29T04:36:30;95262.59;;;16.43;100.00
65800;BME280;52544;48.116;11.660;2023-07-29T04:38:55;95264.63;;;16.41;100.00
65800;BME280;52544;48.116;11.660;2023-07-29T04:41:20;95261.97;;;16.41;100.00
65800;BME280;52544;48.116;11.660;2023-07-29T04:43:46;95259.28;;;16.41;100.00
65800;BME280;52544;48.116;11.660;2023-07-29T04:46:12;95257.63;;;16.40;100.00
65800;BME280;52544;48.116;11.660;2023-07-29T04:48:37;95254.59;;;16.43;100.00
65800;BME280;52544;48.116;11.660;2023-07-29T04:51:02;95262.59;;;16.43;100.00
65800;BME280;52544;48.116;11.660;2023-07-29T04:53:28;95260.59;;;16.45;100.00
65800;BME280;52544;48.116;11.660;2023-07-29T04:55:53;95266.44;;;16.48;100.00
65800;BME280;52544;48.116;11.660;2023-07-29T04:58:19;95266.25;;;16.50;100.00
65800;BME280;52544;48.116;11.660;2023-07-29T05:00:46;95264.22;;;16.52;100.00
65800;BME280;52544;48.116;11.660;2023-07-29T05:03:12;95257.91;;;16.53;100.00
65800;BME280;52544;48.116;11.660;2023-07-29T05:05:37;95251.88;;;16.51;100.00
65800;BME280;52544;48.116;11.660;2023-07-29T05:08:03;95244.53;;;16.53;100.00
65800;BME280;52544;48.116;11.660;2023-07-29T05:10:28;95251.84;;;16.59;100.00
65800;BME280;52544;48.116;11.660;2023-07-29T05:12:53;95254.47;;;16.67;100.00
65800;BME280;52544;48.116;11.660;2023-07-29T05:15:19;95244.38;;;16.78;100.00
65800;BME280;52544;48.116;11.660;2023-07-29T05:17:45;95247.72;;;16.80;100.00
65800;BME280;52544;48.116;11.660;2023-07-29T05:20:10;95242.00;;;16.91;100.00
65800;BME280;52544;48.116;11.660;2023-07-29T05:22:36;95233.88;;;16.99;100.00
65800;BME280;52544;48.116;11.660;2023-07-29T05:25:02;95233.00;;;17.07;100.00
65800;BME280;52544;48.116;11.660;2023-07-29T05:27:28;95233.13;;;17.13;100.00
65800;BME280;52544;48.116;11.660;2023-07-29T05:29:53;95229.91;;;17.18;100.00
65800;BME280;52544;48.116;11.660;2023-07-29T05:32:18;95223.00;;;17.23;100.00
65800;BME280;52544;48.116;11.660;2023-07-29T05:34:44;95228.63;;;17.29;100.00
65800;BME280;52544;48.116;11.660;2023-07-29T05:37:09;95224.78;;;17.31;100.00
65800;BME280;52544;48.116;11.660;2023-07-29T05:39:35;95227.56;;;17.38;100.00
65800;BME280;52544;48.116;11.660;2023-07-29T05:42:00;95229.84;;;17.41;100.00
65800;BME280;52544;48.116;11.660;2023-07-29T05:44:28;95244.53;;;17.45;100.00
65800;BME280;52544;48.116;11.660;2023-07-29T05:46:53;95253.22;;;17.47;100.00
65800;BME280;52544;48.116;11.660;2023-07-29T05:49:19;95254.69;;;17.49;100.00
65800;BME280;52544;48.116;11.660;2023-07-29T05:51:44;95253.16;;;17.55;100.00
65800;BME280;52544;48.116;11.660;2023-07-29T05:54:10;95249.91;;;17.60;100.00
65800;BME280;52544;48.116;11.660;2023-07-29T05:56:35;95251.22;;;17.64;100.00
65800;BME280;52544;48.116;11.660;2023-07-29T05:59:00;95250.00;;;17.66;100.00
65800;BME280;52544;48.116;11.660;2023-07-29T06:01:26;95245.94;;;17.70;100.00
65800;BME280;52544;48.116;11.660;2023-07-29T06:03:51;95252.69;;;17.66;100.00
65800;BME280;52544;48.116;11.660;2023-07-29T06:06:17;95261.38;;;17.68;100.00
65800;BME280;52544;48.116;11.660;2023-07-29T06:08:42;95298.16;;;17.66;100.00
65800;BME280;52544;48.116;11.660;2023-07-29T06:11:08;95350.03;;;17.65;100.00
65800;BME280;52544;48.116;11.660;2023-07-29T06:13:33;95335.19;;;17.63;100.00
65800;BME280;52544;48.116;11.660;2023-07-29T06:15:58;95288.00;;;17.62;100.00
65800;BME280;52544;48.116;11.660;2023-07-29T06:18:24;95272.84;;;17.54;100.00
65800;BME280;52544;48.116;11.660;2023-07-29T06:20:50;95257.19;;;17.51;100.00
65800;BME280;52544;48.116;11.660;2023-07-29T06:23:16;95236.03;;;17.41;100.00
65800;BME280;52544;48.116;11.660;2023-07-29T06:25:41;95246.28;;;17.38;100.00
65800;BME280;52544;48.116;11.660;2023-07-29T06:28:06;95238.81;;;17.33;100.00
65800;BME280;52544;48.116;11.660;2023-07-29T06:30:32;95245.16;;;17.32;100.00
65800;BME280;52544;48.116;11.660;2023-07-29T06:32:57;95245.34;;;17.31;100.00
65800;BME280;52544;48.116;11.660;2023-07-29T06:35:23;95254.00;;;17.33;100.00
65800;BME280;52544;48.116;11.660;2023-07-29T06:37:49;95251.63;;;17.38;100.00
65800;BME280;52544;48.116;11.660;2023-07-29T06:40:14;95264.81;;;17.39;100.00
65800;BME280;52544;48.116;11.660;2023-07-29T06:42:40;95274.34;;;17.42;100.00
65800;BME280;52544;48.116;11.660;2023-07-29T06:45:06;95276.63;;;17.45;100.00
65800;BME280;52544;48.116;11.660;2023-07-29T06:47:32;95290.81;;;17.45;100.00
65800;BME280;52544;48.116;11.660;2023-07-29T06:49:57;95285.03;;;17.42;100.00
65800;BME280;52544;48.116;11.660;2023-07-29T06:52:22;95299.03;;;17.44;100.00
65800;BME280;52544;48.116;11.660;2023-07-29T06:54:48;95320.78;;;17.41;100.00
65800;BME280;52544;48.116;11.660;2023-07-29T06:57:13;95329.19;;;17.38;100.00
65800;BME280;52544;48.116;11.660;2023-07-29T06:59:39;95330.19;;;17.37;100.00
65800;BME280;52544;48.116;11.660;2023-07-29T07:02:05;95341.06;;;17.35;100.00
65800;BME280;52544;48.116;11.660;2023-07-29T07:04:30;95352.59;;;17.36;100.00
65800;BME280;52544;48.116;11.660;2023-07-29T07:06:56;95349.94;;;17.36;100.00
65800;BME280;52544;48.116;11.660;2023-07-29T07:09:21;95351.97;;;17.34;100.00
65800;BME280;52544;48.116;11.660;2023-07-29T07:11:47;95351.97;;;17.34;100.00
65800;BME280;52544;48.116;11.660;2023-07-29T07:14:12;95343.28;;;17.32;100.00
65800;BME280;52544;48.116;11.660;2023-07-29T07:16:38;95343.63;;;17.29;100.00
65800;BME280;52544;48.116;11.660;2023-07-29T07:19:04;95339.28;;;17.28;100.00
65800;BME280;52544;48.116;11.660;2023-07-29T07:21:30;95338.28;;;17.29;100.00
65800;BME280;52544;48.116;11.660;2023-07-29T07:23:57;95335.59;;;17.29;100.00
65800;BME280;52544;48.116;11.660;2023-07-29T07:26:23;95329.06;;;17.31;100.00
65800;BME280;52544;48.116;11.660;2023-07-29T07:28:48;95331.94;;;17.30;100.00
65800;BME280;52544;48.116;11.660;2023-07-29T07:31:13;95330.91;;;17.31;100.00
65800;BME280;52544;48.116;11.660;2023-07-29T07:33:39;95327.22;;;17.32;100.00
65800;BME280;52544;48.116;11.660;2023-07-29T07:36:04;95322.88;;;17.31;100.00
65800;BME280;52544;48.116;11.660;2023-07-29T07:38:30;95324.19;;;17.35;100.00
65800;BME280;52544;48.116;11.660;2023-07-29T07:40:56;95311.66;;;17.35;100.00
65800;BME280;52544;48.116;11.660;2023-07-29T07:43:22;95305.13;;;17.38;100.00
65800;BME280;52544;48.116;11.660;2023-07-29T07:45:48;95300.75;;;17.37;100.00
65800;BME280;52544;48.116;11.660;2023-07-29T07:48:13;95296.91;;;17.39;100.00
65800;BME280;52544;48.116;11.660;2023-07-29T07:50:39;95289.53;;;17.41;100.00
65800;BME280;52544;48.116;11.660;2023-07-29T07:53:05;95271.00;;;17.40;100.00
65800;BME280;52544;48.116;11.660;2023-07-29T07:55:30;95261.25;;;17.47;100.00
65800;BME280;52544;48.116;11.660;2023-07-29T07:57:56;95257.34;;;17.49;100.00
65800;BME280;52544;48.116;11.660;2023-07-29T08:00:21;95265.03;;;17.53;100.00
65800;BME280;52544;48.116;11.660;2023-07-29T08:02:46;95260.97;;;17.57;100.00
65800;BME280;52544;48.116;11.660;2023-07-29T08:05:12;95267.00;;;17.59;100.00
65800;BME280;52544;48.116;11.660;2023-07-29T08:07:37;95272.16;;;17.60;100.00
65800;BME280;52544;48.116;11.660;2023-07-29T08:10:03;95277.16;;;17.63;100.00
65800;BME280;52544;48.116;11.660;2023-07-29T08:12:28;95270.78;;;17.64;100.00
65800;BME280;52544;48.116;11.660;2023-07-29T08:14:53;95274.28;;;17.65;100.00
65800;BME280;52544;48.116;11.660;2023-07-29T08:17:19;95269.22;;;17.70;100.00
65800;BME280;52544;48.116;11.660;2023-07-29T08:19:44;95272.03;;;17.77;100.00
65800;BME280;52544;48.116;11.660;2023-07-29T08:22:10;95272.94;;;17.84;100.00
65800;BME280;52544;48.116;11.660;2023-07-29T08:24:35;95264.81;;;17.92;100.00
65800;BME280;52544;48.116;11.660;2023-07-29T08:27:00;95266.13;;;17.96;100.00
65800;BME280;52544;48.116;11.660;2023-07-29T08:29:26;95271.78;;;18.01;100.00
65800;BME280;52544;48.116;11.660;2023-07-29T08:31:52;95260.41;;;17.99;100.00
65800;BME280;52544;48.116;11.660;2023-07-29T08:34:17;95274.72;;;18.06;100.00
65800;BME280;52544;48.116;11.660;2023-07-29T08:36:43;95269.19;;;18.08;100.00
65800;BME280;52544;48.116;11.660;2023-07-29T08:39:08;95276.28;;;18.15;100.00
65800;BME280;52544;48.116;11.660;2023-07-29T08:41:42;95277.22;;;18.22;100.00
65800;BME280;52544;48.116;11.660;2023-07-29T08:44:23;95277.28;;;18.29;100.00
65800;BME280;52544;48.116;11.660;2023-07-29T08:46:49;95276.56;;;18.35;100.00
65800;BME280;52544;48.116;11.660;2023-07-29T08:49:16;95266.69;;;18.36;100.00
65800;BME280;52544;48.116;11.660;2023-07-29T08:51:44;95276.84;;;18.40;100.00
65800;BME280;52544;48.116;11.660;2023-07-29T08:54:12;95279.97;;;18.44;100.00
65800;BME280;52544;48.116;11.660;2023-07-29T08:56:37;95268.50;;;18.50;100.00
65800;BME280;52544;48.116;11.660;2023-07-29T08:59:03;95276.78;;;18.55;100.00
65800;BME280;52544;48.116;11.660;2023-07-29T09:01:30;95279.38;;;18.63;100.00
65800;BME280;52544;48.116;11.660;2023-07-29T09:03:56;95270.63;;;18.69;100.00
65800;BME280;52544;48.116;11.660;2023-07-29T09:06:21;95269.03;;;18.75;100.00
65800;BME280;52544;48.116;11.660;2023-07-29T09:08:49;95271.75;;;18.82;100.00
65800;BME280;52544;48.116;11.660;2023-07-29T09:11:16;95268.97;;;18.90;100.00
65800;BME280;52544;48.116;11.660;2023-07-29T09:13:43;95281.44;;;18.97;100.00
65800;BME280;52544;48.116;11.660;2023-07-29T09:16:09;95278.63;;;19.06;100.00
65800;BME280;52544;48.116;11.660;2023-07-29T09:18:34;95273.34;;;19.12;100.00
65800;BME280;52544;48.116;11.660;2023-07-29T09:21:00;95274.88;;;19.21;100.00
65800;BME280;52544;48.116;11.660;2023-07-29T09:23:26;95278.06;;;19.32;100.00
65800;BME280;52544;48.116;11.660;2023-07-29T09:26:00;95281.88;;;19.44;100.00
65800;BME280;52544;48.116;11.660;2023-07-29T09:28:26;95274.97;;;19.56;100.00
65800;BME280;52544;48.116;11.660;2023-07-29T09:30:52;95275.50;;;19.66;100.00
65800;BME280;52544;48.116;11.660;2023-07-29T09:33:18;95280.97;;;19.80;100.00
65800;BME280;52544;48.116;11.660;2023-07-29T09:35:44;95266.63;;;19.94;100.00
65800;BME280;52544;48.116;11.660;2023-07-29T09:38:14;95271.69;;;20.10;100.00
65800;BME280;52544;48.116;11.660;2023-07-29T09:40:40;95265.56;;;20.23;100.00
65800;BME280;52544;48.116;11.660;2023-07-29T09:43:08;95272.66;;;20.37;100.00
65800;BME280;52544;48.116;11.660;2023-07-29T09:45:35;95263.84;;;20.50;100.00
65800;BME280;52544;48.116;11.660;2023-07-29T09:48:03;95262.84;;;20.64;100.00
65800;BME280;52544;48.116;11.660;2023-07-29T09:50:30;95266.22;;;20.73;100.00
65800;BME280;52544;48.116;11.660;2023-07-29T09:52:56;95264.81;;;20.84;100.00
65800;BME280;52544;48.116;11.660;2023-07-29T09:55:25;95263.19;;;20.96;100.00
65800;BME280;52544;48.116;11.660;2023-07-29T09:57:58;95260.53;;;21.09;100.00
65800;BME280;52544;48.116;11.660;2023-07-29T10:00:28;95257.03;;;21.22;100.00
65800;BME280;52544;48.116;11.660;2023-07-29T10:02:53;95258.53;;;21.38;100.00
65800;BME280;52544;48.116;11.660;2023-07-29T10:05:20;95247.97;;;21.43;100.00
65800;BME280;52544;48.116;11.660;2023-07-29T10:07:45;95253.97;;;21.45;100.00
65800;BME280;52544;48.116;11.660;2023-07-29T10:10:13;95249.41;;;21.52;100.00
65800;BME280;52544;48.116;11.660;2023-07-29T10:12:39;95240.53;;;21.58;100.00
65800;BME280;52544;48.116;11.660;2023-07-29T10:15:06;95249.41;;;21.65;100.00
65800;BME280;52544;48.116;11.660;2023-07-29T10:17:37;95241.97;;;21.67;100.00
65800;BME280;52544;48.116;11.660;2023-07-29T10:20:05;95238.66;;;21.72;100.00
65800;BME280;52544;48.116;11.660;2023-07-29T10:22:37;95241.31;;;21.79;100.00
65800;BME280;52544;48.116;11.660;2023-07-29T10:25:05;95241.34;;;21.92;100.00
65800;BME280;52544;48.116;11.660;2023-07-29T10:27:38;95231.78;;;22.03;100.00
65800;BME280;52544;48.116;11.660;2023-07-29T10:30:06;95227.00;;;22.05;100.00
65800;BME280;52544;48.116;11.660;2023-07-29T10:32:32;95231.34;;;22.12;100.00
65800;BME280;52544;48.116;11.660;2023-07-29T10:34:58;95230.31;;;22.27;100.00
65800;BME280;52544;48.116;11.660;2023-07-29T10:37:23;95220.06;;;22.42;100.00
65800;BME280;52544;48.116;11.660;2023-07-29T10:39:54;95223.91;;;22.66;100.00
65800;BME280;52544;48.116;11.660;2023-07-29T10:42:20;95216.34;;;22.88;100.00
65800;BME280;52544;48.116;11.660;2023-07-29T10:44:46;95219.13;;;23.13;100.00
65800;BME280;52544;48.116;11.660;2023-07-29T10:47:16;95215.25;;;23.34;100.00
65800;BME280;52544;48.116;11.660;2023-07-29T10:49:46;95221.78;;;23.44;100.00
65800;BME280;52544;48.116;11.660;2023-07-29T10:52:27;95215.84;;;23.61;100.00
65800;BME280;52544;48.116;11.660;2023-07-29T10:54:53;95203.69;;;23.77;100.00
65800;BME280;52544;48.116;11.660;2023-07-29T10:57:35;95212.84;;;23.76;100.00
65800;BME280;52544;48.116;11.660;2023-07-29T11:00:02;95190.69;;;23.67;100.00
65800;BME280;52544;48.116;11.660;2023-07-29T11:02:35;95207.16;;;23.59;100.00
65800;BME280;52544;48.116;11.660;2023-07-29T11:05:05;95213.09;;;23.42;100.00
65800;BME280;52544;48.116;11.660;2023-07-29T11:07:31;95211.06;;;23.38;100.00
65800;BME280;52544;48.116;11.660;2023-07-29T11:10:07;95195.72;;;23.57;100.00
65800;BME280;52544;48.116;11.660;2023-07-29T11:12:49;95193.03;;;23.82;100.00
65800;BME280;52544;48.116;11.660;2023-07-29T11:15:20;95198.00;;;24.03;100.00
65800;BME280;52544;48.116;11.660;2023-07-29T11:17:51;95194.59;;;24.14;100.00
65800;BME280;52544;48.116;11.660;2023-07-29T11:20:19;95199.22;;;24.07;100.00
65800;BME280;52544;48.116;11.660;2023-07-29T11:22:45;95196.31;;;24.09;100.00
65800;BME280;52544;48.116;11.660;2023-07-29T11:25:12;95193.81;;;24.07;100.00
65800;BME280;52544;48.116;11.660;2023-07-29T11:27:38;95191.41;;;23.99;100.00
65800;BME280;52544;48.116;11.660;2023-07-29T11:30:06;95197.56;;;24.06;100.00
65800;BME280;52544;48.116;11.660;2023-07-29T11:32:32;95203.56;;;23.90;100.00
65800;BME280;52544;48.116;11.660;2023-07-29T11:35:02;95216.31;;;23.58;100.00
65800;BME280;52544;48.116;11.660;2023-07-29T11:37:28;95201.97;;;23.32;100.00
65800;BME280;52544;48.116;11.660;2023-07-29T11:39:53;95222.47;;;23.08;100.00
65800;BME280;52544;48.116;11.660;2023-07-29T11:42:18;95233.16;;;22.83;100.00
65800;BME280;52544;48.116;11.660;2023-07-29T11:44:45;95225.47;;;22.87;100.00
65800;BME280;52544;48.116;11.660;2023-07-29T11:47:11;95223.44;;;23.20;100.00
65800;BME280;52544;48.116;11.660;2023-07-29T11:49:41;95223.50;;;23.64;100.00
65800;BME280;52544;48.116;11.660;2023-07-29T11:52:07;95215.72;;;23.99;100.00
65800;BME280;52544;48.116;11.660;2023-07-29T11:54:35;95222.44;;;24.33;100.00
65800;BME280;52544;48.116;11.660;2023-07-29T11:57:00;95219.97;;;24.50;100.00
65800;BME280;52544;48.116;11.660;2023-07-29T11:59:27;95219.38;;;24.66;100.00
65800;BME280;52544;48.116;11.660;2023-07-29T12:01:53;95220.44;;;24.96;100.00
65800;BME280;52544;48.116;11.660;2023-07-29T12:04:19;95221.47;;;25.13;100.00
65800;BME280;52544;48.116;11.660;2023-07-29T12:06:45;95212.94;;;25.39;100.00
65800;BME280;52544;48.116;11.660;2023-07-29T12:09:10;95210.19;;;25.58;100.00
65800;BME280;52544;48.116;11.660;2023-07-29T12:11:36;95196.91;;;25.80;100.00
65800;BME280;52544;48.116;11.660;2023-07-29T12:14:01;95193.59;;;26.01;100.00
65800;BME280;52544;48.116;11.660;2023-07-29T12:16:27;95188.66;;;26.22;100.00
65800;BME280;52544;48.116;11.660;2023-07-29T12:19:00;95189.56;;;26.39;100.00
65800;BME280;52544;48.116;11.660;2023-07-29T12:21:26;95183.88;;;26.52;100.00
65800;BME280;52544;48.116;11.660;2023-07-29T12:23:51;95181.16;;;26.64;100.00
65800;BME280;52544;48.116;11.660;2023-07-29T12:26:16;95170.81;;;26.78;100.00
65800;BME280;52544;48.116;11.660;2023-07-29T12:28:46;95176.53;;;26.93;100.00
65800;BME280;52544;48.116;11.660;2023-07-29T12:31:11;95168.09;;;27.06;100.00
65800;BME280;52544;48.116;11.660;2023-07-29T12:33:37;95168.06;;;27.18;100.00
65800;BME280;52544;48.116;11.660;2023-07-29T12:36:07;95181.16;;;27.38;100.00
65800;BME280;52544;48.116;11.660;2023-07-29T12:38:33;95171.47;;;27.42;100.00
65800;BME280;52544;48.116;11.660;2023-07-29T12:40:58;95164.19;;;27.31;100.00
65800;BME280;52544;48.116;11.660;2023-07-29T12:43:25;95171.34;;;26.91;100.00
65800;BME280;52544;48.116;11.660;2023-07-29T12:45:51;95161.81;;;26.60;100.00
65800;BME280;52544;48.116;11.660;2023-07-29T12:48:17;95151.34;;;26.29;100.00